sensor_id;sensor_type;location;lat;lon;timestamp;pressure;altitude;pressure_sealevel;temperature;humidity
7532;BME280;3807;49.030;8.714;2023-02-12T00:01:33;101363.38;;;8.21;65.87
7532;BME280;3807;49.030;8.714;2023-02-12T00:03:58;101367.59;;;8.21;66.13
7532;BME280;3807;49.030;8.714;2023-02-12T00:06:24;101368.44;;;8.21;66.09
7532;BME280;3807;49.030;8.714;2023-02-12T00:08:50;101361.69;;;8.22;66.18
7532;BME280;3807;49.030;8.714;2023-02-12T00:11:18;101365.09;;;8.25;66.16
7532;BME280;3807;49.030;8.714;2023-02-12T00:13:44;101366.78;;;8.25;66.18
7532;BME280;3807;49.030;8.714;2023-02-12T00:16:12;101361.66;;;8.19;66.17
7532;BME280;3807;49.030;8.714;2023-02-12T00:18:38;101364.22;;;8.22;66.15
7532;BME280;3807;49.030;8.714;2023-02-12T00:21:04;101368.44;;;8.20;66.07
7532;BME280;3807;49.030;8.714;2023-02-12T00:23:30;101367.56;;;8.16;66.26
7532;BME280;3807;49.030;8.714;2023-02-12T00:25:56;101370.94;;;8.17;66.26
7532;BME280;3807;49.030;8.714;2023-02-12T00:28:21;101366.75;;;8.20;66.11
7532;BME280;3807;49.030;8.714;2023-02-12T00:30:46;101365.00;;;8.15;65.93
7532;BME280;3807;49.030;8.714;2023-02-12T00:33:12;101366.69;;;8.13;65.98
7532;BME280;3807;49.030;8.714;2023-02-12T00:35:37;101365.81;;;8.12;66.10
7532;BME280;3807;49.030;8.714;2023-02-12T00:38:02;101355.66;;;8.10;66.10
7532;BME280;3807;49.030;8.714;2023-02-12T00:40:28;101365.81;;;8.10;65.89
7532;BME280;3807;49.030;8.714;2023-02-12T00:42:53;101373.41;;;8.09;65.92
7532;BME280;3807;49.030;8.714;2023-02-12T00:45:19;101367.47;;;8.07;66.03
7532;BME280;3807;49.030;8.714;2023-02-12T00:47:44;101365.81;;;8.09;66.28
7532;BME280;3807;49.030;8.714;2023-02-12T00:50:10;101376.72;;;8.03;66.00
7532;BME280;3807;49.030;8.714;2023-02-12T00:52:35;101389.44;;;8.03;66.15
7532;BME280;3807;49.030;8.714;2023-02-12T00:55:00;101377.59;;;8.02;66.27
7532;BME280;3807;49.030;8.714;2023-02-12T00:57:26;101370.78;;;8.00;66.29
7532;BME280;3807;49.030;8.714;2023-02-12T00:59:51;101369.06;;;7.97;66.26
7532;BME280;3807;49.030;8.714;2023-02-12T01:02:17;101379.25;;;8.00;66.29
7532;BME280;3807;49.030;8.714;2023-02-12T01:04:42;101375.81;;;7.98;66.21
7532;BME280;3807;49.030;8.714;2023-02-12T01:07:08;101383.44;;;7.95;66.51
7532;BME280;3807;49.030;8.714;2023-02-12T01:09:33;101382.63;;;7.99;66.22
7532;BME280;3807;49.030;8.714;2023-02-12T01:11:59;101380.88;;;7.95;66.29
7532;BME280;3807;49.030;8.714;2023-02-12T01:14:24;101391.84;;;7.93;66.36
7532;BME280;3807;49.030;8.714;2023-02-12T01:16:49;101391.03;;;7.97;66.32
7532;BME280;3807;49.030;8.714;2023-02-12T01:19:14;101382.59;;;7.96;66.46
7532;BME280;3807;49.030;8.714;2023-02-12T01:21:40;101385.09;;;7.95;66.56
7532;BME280;3807;49.030;8.714;2023-02-12T01:24:05;101385.13;;;7.96;66.42
7532;BME280;3807;49.030;8.714;2023-02-12T01:26:31;101386.78;;;7.94;66.32
7532;BME280;3807;49.030;8.714;2023-02-12T01:28:59;101375.78;;;7.92;66.29
7532;BME280;3807;49.030;8.714;2023-02-12T01:31:27;101374.06;;;7.91;66.33
7532;BME280;3807;49.030;8.714;2023-02-12T01:33:55;101379.25;;;8.00;66.58
7532;BME280;3807;49.030;8.714;2023-02-12T01:36:22;101385.09;;;7.95;66.22
7532;BME280;3807;49.030;8.714;2023-02-12T01:38:48;101377.44;;;7.90;66.44
7532;BME280;3807;49.030;8.714;2023-02-12T01:41:17;101380.81;;;7.91;66.65
7532;BME280;3807;49.030;8.714;2023-02-12T01:43:43;101379.97;;;7.90;66.61
7532;BME280;3807;49.030;8.714;2023-02-12T01:46:12;101374.94;;;7.92;66.59
7532;BME280;3807;49.030;8.714;2023-02-12T01:48:41;101385.09;;;7.92;66.39
7532;BME280;3807;49.030;8.714;2023-02-12T01:51:09;101380.78;;;7.84;66.86
7532;BME280;3807;49.030;8.714;2023-02-12T01:53:43;101373.16;;;7.86;66.59
7532;BME280;3807;49.030;8.714;2023-02-12T01:56:11;101368.87;;;7.80;66.82
7532;BME280;3807;49.030;8.714;2023-02-12T01:58:40;101368.09;;;7.86;66.63
7532;BME280;3807;49.030;8.714;2023-02-12T02:01:10;101371.47;;;7.86;66.56
7532;BME280;3807;49.030;8.714;2023-02-12T02:03:38;101368.87;;;7.80;66.58
7532;BME280;3807;49.030;8.714;2023-02-12T02:06:11;101369.72;;;7.78;67.04
7532;BME280;3807;49.030;8.714;2023-02-12T02:08:37;101363.84;;;7.82;66.75
7532;BME280;3807;49.030;8.714;2023-02-12T02:11:03;101364.66;;;7.81;66.87
7532;BME280;3807;49.030;8.714;2023-02-12T02:13:49;101366.38;;;7.82;66.93
7532;BME280;3807;49.030;8.714;2023-02-12T02:16:34;101364.63;;;7.79;66.71
7532;BME280;3807;49.030;8.714;2023-02-12T02:19:06;101360.41;;;7.78;66.78
7532;BME280;3807;49.030;8.714;2023-02-12T02:24:36;101359.53;;;7.76;66.78
7532;BME280;3807;49.030;8.714;2023-02-12T02:27:14;101356.09;;;7.73;66.95
7532;BME280;3807;49.030;8.714;2023-02-12T02:32:31;101349.44;;;7.81;66.86
7532;BME280;3807;49.030;8.714;2023-02-12T02:35:14;101351.97;;;7.79;66.85
7532;BME280;3807;49.030;8.714;2023-02-12T02:37:50;101350.28;;;7.80;66.78
7532;BME280;3807;49.030;8.714;2023-02-12T02:43:05;101347.72;;;7.78;66.70
7532;BME280;3807;49.030;8.714;2023-02-12T02:45:43;101340.91;;;7.73;66.84
7532;BME280;3807;49.030;8.714;2023-02-12T02:48:16;101346.84;;;7.76;66.96
7532;BME280;3807;49.030;8.714;2023-02-12T02:50:49;101349.41;;;7.79;66.88
7532;BME280;3807;49.030;8.714;2023-02-12T02:53:21;101350.28;;;7.78;66.75
7532;BME280;3807;49.030;8.714;2023-02-12T02:55:51;101354.47;;;7.75;66.86
7532;BME280;3807;49.030;8.714;2023-02-12T02:58:25;101352.75;;;7.75;66.92
7532;BME280;3807;49.030;8.714;2023-02-12T03:01:06;101347.69;;;7.77;66.75
7532;BME280;3807;49.030;8.714;2023-02-12T03:06:09;101347.66;;;7.74;66.88
7532;BME280;3807;49.030;8.714;2023-02-12T03:08:39;101343.47;;;7.74;66.79
7532;BME280;3807;49.030;8.714;2023-02-12T03:11:27;101343.44;;;7.71;66.85
7532;BME280;3807;49.030;8.714;2023-02-12T03:13:59;101340.97;;;7.79;66.84
7532;BME280;3807;49.030;8.714;2023-02-12T03:16:31;101341.75;;;7.72;67.03
7532;BME280;3807;49.030;8.714;2023-02-12T03:19:08;101345.13;;;7.71;66.82
7532;BME280;3807;49.030;8.714;2023-02-12T03:21:45;101334.09;;;7.69;66.86
7532;BME280;3807;49.030;8.714;2023-02-12T03:24:36;101345.13;;;7.74;66.82
7532;BME280;3807;49.030;8.714;2023-02-12T03:27:12;101337.44;;;7.66;66.89
7532;BME280;3807;49.030;8.714;2023-02-12T03:29:39;101345.00;;;7.63;67.11
7532;BME280;3807;49.030;8.714;2023-02-12T03:35:08;101346.72;;;7.64;67.03
7532;BME280;3807;49.030;8.714;2023-02-12T03:37:39;101352.41;;;7.43;67.74
7532;BME280;3807;49.030;8.714;2023-02-12T03:45:50;101358.50;;;7.57;67.49
7532;BME280;3807;49.030;8.714;2023-02-12T03:48:25;101355.03;;;7.52;67.62
7532;BME280;3807;49.030;8.714;2023-02-12T03:50:56;101356.75;;;7.53;67.44
7532;BME280;3807;49.030;8.714;2023-02-12T03:53:24;101355.94;;;7.57;67.29
7532;BME280;3807;49.030;8.714;2023-02-12T03:55:55;101353.44;;;7.60;67.20
7532;BME280;3807;49.030;8.714;2023-02-12T03:58:25;101355.09;;;7.58;67.15
7532;BME280;3807;49.030;8.714;2023-02-12T04:00:52;101354.22;;;7.56;67.24
7532;BME280;3807;49.030;8.714;2023-02-12T04:03:18;101354.25;;;7.59;67.17
7532;BME280;3807;49.030;8.714;2023-02-12T04:05:44;101353.38;;;7.54;67.33
7532;BME280;3807;49.030;8.714;2023-02-12T04:08:11;101357.56;;;7.52;67.29
7532;BME280;3807;49.030;8.714;2023-02-12T04:13:47;101365.22;;;7.54;67.40
7532;BME280;3807;49.030;8.714;2023-02-12T04:19:03;101365.06;;;7.43;67.71
7532;BME280;3807;49.030;8.714;2023-02-12T04:21:52;101359.97;;;7.42;67.74
7532;BME280;3807;49.030;8.714;2023-02-12T04:26:56;101360.91;;;7.48;67.52
7532;BME280;3807;49.030;8.714;2023-02-12T04:31:57;101372.78;;;7.52;67.43
7532;BME280;3807;49.030;8.714;2023-02-12T04:37:06;101376.88;;;7.43;67.68
7532;BME280;3807;49.030;8.714;2023-02-12T04:39:36;101377.78;;;7.46;67.58
7532;BME280;3807;49.030;8.714;2023-02-12T04:42:03;101379.44;;;7.44;67.60
7532;BME280;3807;49.030;8.714;2023-02-12T04:44:31;101391.19;;;7.39;67.82
7532;BME280;3807;49.030;8.714;2023-02-12T04:46:58;101381.00;;;7.33;67.99
7532;BME280;3807;49.030;8.714;2023-02-12T04:49:24;101386.97;;;7.38;67.98
7532;BME280;3807;49.030;8.714;2023-02-12T04:51:50;101387.81;;;7.37;67.79
7532;BME280;3807;49.030;8.714;2023-02-12T04:54:17;101382.75;;;7.38;67.82
7532;BME280;3807;49.030;8.714;2023-02-12T04:56:43;101384.56;;;7.47;67.56
7532;BME280;3807;49.030;8.714;2023-02-12T04:59:10;101378.59;;;7.45;67.55
7532;BME280;3807;49.030;8.714;2023-02-12T05:01:36;101385.41;;;7.48;67.55
7532;BME280;3807;49.030;8.714;2023-02-12T05:04:03;101383.66;;;7.44;67.72
7532;BME280;3807;49.030;8.714;2023-02-12T05:06:29;101381.22;;;7.50;67.54
7532;BME280;3807;49.030;8.714;2023-02-12T05:08:55;101378.66;;;7.47;67.54
7532;BME280;3807;49.030;8.714;2023-02-12T05:11:21;101376.03;;;7.40;67.68
7532;BME280;3807;49.030;8.714;2023-02-12T05:13:48;101369.25;;;7.41;67.82
7532;BME280;3807;49.030;8.714;2023-02-12T05:16:14;101374.38;;;7.44;67.66
7532;BME280;3807;49.030;8.714;2023-02-12T05:18:39;101367.62;;;7.45;67.63
7532;BME280;3807;49.030;8.714;2023-02-12T05:21:04;101368.47;;;7.44;67.60
7532;BME280;3807;49.030;8.714;2023-02-12T05:23:32;101370.09;;;7.42;67.68
7532;BME280;3807;49.030;8.714;2023-02-12T05:25:59;101371.75;;;7.36;67.82
7532;BME280;3807;49.030;8.714;2023-02-12T05:28:25;101367.56;;;7.40;67.86
7532;BME280;3807;49.030;8.714;2023-02-12T05:30:51;101364.09;;;7.33;67.96
7532;BME280;3807;49.030;8.714;2023-02-12T05:33:16;101363.22;;;7.31;67.98
7532;BME280;3807;49.030;8.714;2023-02-12T05:35:41;101366.59;;;7.30;68.01
7532;BME280;3807;49.030;8.714;2023-02-12T05:38:07;101370.06;;;7.37;67.84
7532;BME280;3807;49.030;8.714;2023-02-12T05:40:32;101372.50;;;7.31;67.99
7532;BME280;3807;49.030;8.714;2023-02-12T05:42:58;101370.03;;;7.32;68.06
7532;BME280;3807;49.030;8.714;2023-02-12T05:45:23;101369.13;;;7.32;68.00
7532;BME280;3807;49.030;8.714;2023-02-12T05:47:52;101368.25;;;7.27;68.22
7532;BME280;3807;49.030;8.714;2023-02-12T05:50:18;101362.28;;;7.25;68.23
7532;BME280;3807;49.030;8.714;2023-02-12T05:52:43;101372.47;;;7.26;68.17
7532;BME280;3807;49.030;8.714;2023-02-12T05:55:09;101370.72;;;7.22;68.40
7532;BME280;3807;49.030;8.714;2023-02-12T05:57:34;101372.47;;;7.28;68.17
7532;BME280;3807;49.030;8.714;2023-02-12T05:59:59;101369.00;;;7.20;68.44
7532;BME280;3807;49.030;8.714;2023-02-12T06:02:25;101363.13;;;7.22;68.40
7532;BME280;3807;49.030;8.714;2023-02-12T06:04:50;101369.03;;;7.23;68.27
7532;BME280;3807;49.030;8.714;2023-02-12T06:07:15;101367.34;;;7.23;68.50
7532;BME280;3807;49.030;8.714;2023-02-12T06:09:40;101367.25;;;7.17;68.64
7532;BME280;3807;49.030;8.714;2023-02-12T06:12:06;101370.69;;;7.21;68.59
7532;BME280;3807;49.030;8.714;2023-02-12T06:14:31;101367.34;;;7.25;68.41
7532;BME280;3807;49.030;8.714;2023-02-12T06:16:57;101377.50;;;7.23;68.35
7532;BME280;3807;49.030;8.714;2023-02-12T06:19:22;101373.22;;;7.21;68.23
7532;BME280;3807;49.030;8.714;2023-02-12T06:21:48;101366.41;;;7.16;68.39
7532;BME280;3807;49.030;8.714;2023-02-12T06:24:15;101369.78;;;7.15;68.50
7532;BME280;3807;49.030;8.714;2023-02-12T06:26:41;101368.91;;;7.13;68.57
7532;BME280;3807;49.030;8.714;2023-02-12T06:29:06;101374.06;;;7.21;68.34
7532;BME280;3807;49.030;8.714;2023-02-12T06:31:34;101385.81;;;7.14;68.41
7532;BME280;3807;49.030;8.714;2023-02-12T06:34:04;101379.81;;;7.08;68.56
7532;BME280;3807;49.030;8.714;2023-02-12T06:36:29;101386.53;;;7.07;68.62
7532;BME280;3807;49.030;8.714;2023-02-12T06:38:55;101395.03;;;7.08;68.61
7532;BME280;3807;49.030;8.714;2023-02-12T06:41:21;101396.66;;;7.06;68.60
7532;BME280;3807;49.030;8.714;2023-02-12T06:43:46;101401.75;;;7.06;68.52
7532;BME280;3807;49.030;8.714;2023-02-12T06:46:12;101409.41;;;7.10;68.41
7532;BME280;3807;49.030;8.714;2023-02-12T06:48:38;101406.06;;;7.13;68.21
7532;BME280;3807;49.030;8.714;2023-02-12T06:51:14;101407.69;;;7.09;68.48
7532;BME280;3807;49.030;8.714;2023-02-12T06:53:40;101413.63;;;7.10;68.52
7532;BME280;3807;49.030;8.714;2023-02-12T06:56:08;101412.72;;;7.06;68.46
7532;BME280;3807;49.030;8.714;2023-02-12T06:58:36;101409.34;;;7.04;68.54
7532;BME280;3807;49.030;8.714;2023-02-12T07:03:38;101416.94;;;7.04;68.50
7532;BME280;3807;49.030;8.714;2023-02-12T07:06:04;101415.25;;;7.05;68.51
7532;BME280;3807;49.030;8.714;2023-02-12T07:08:29;101416.84;;;6.98;68.70
7532;BME280;3807;49.030;8.714;2023-02-12T07:10:54;101416.78;;;6.95;68.85
7532;BME280;3807;49.030;8.714;2023-02-12T07:13:20;101419.41;;;7.01;68.61
7532;BME280;3807;49.030;8.714;2023-02-12T07:15:45;101418.53;;;6.98;68.71
7532;BME280;3807;49.030;8.714;2023-02-12T07:18:10;101416.00;;;6.99;68.81
7532;BME280;3807;49.030;8.714;2023-02-12T07:20:36;101413.47;;;7.01;68.62
7532;BME280;3807;49.030;8.714;2023-02-12T07:23:01;101404.06;;;6.92;68.84
7532;BME280;3807;49.030;8.714;2023-02-12T07:25:26;101411.69;;;6.93;69.00
7532;BME280;3807;49.030;8.714;2023-02-12T07:27:52;101412.47;;;6.88;69.02
7532;BME280;3807;49.030;8.714;2023-02-12T07:30:17;101407.44;;;6.91;68.96
7532;BME280;3807;49.030;8.714;2023-02-12T07:32:43;101416.94;;;7.04;68.73
7532;BME280;3807;49.030;8.714;2023-02-12T07:35:09;101412.75;;;7.08;68.61
7532;BME280;3807;49.030;8.714;2023-02-12T07:37:34;101422.84;;;7.06;68.59
7532;BME280;3807;49.030;8.714;2023-02-12T07:39:59;101416.84;;;7.00;68.69
7532;BME280;3807;49.030;8.714;2023-02-12T07:42:25;101416.00;;;6.98;68.74
7532;BME280;3807;49.030;8.714;2023-02-12T07:44:50;101410.09;;;7.00;68.58
7532;BME280;3807;49.030;8.714;2023-02-12T07:47:15;101416.09;;;7.07;68.72
7532;BME280;3807;49.030;8.714;2023-02-12T07:49:41;101412.72;;;7.05;68.73
7532;BME280;3807;49.030;8.714;2023-02-12T07:52:06;101408.41;;;7.01;68.76
7532;BME280;3807;49.030;8.714;2023-02-12T07:54:31;101410.28;;;7.14;68.43
7532;BME280;3807;49.030;8.714;2023-02-12T07:56:57;101417.00;;;7.10;68.41
7532;BME280;3807;49.030;8.714;2023-02-12T07:59:22;101413.56;;;7.07;68.50
7532;BME280;3807;49.030;8.714;2023-02-12T08:01:49;101417.78;;;7.06;68.53
7532;BME280;3807;49.030;8.714;2023-02-12T08:04:18;101409.50;;;7.16;68.21
7532;BME280;3807;49.030;8.714;2023-02-12T08:06:46;101417.94;;;7.15;68.14
7532;BME280;3807;49.030;8.714;2023-02-12T08:09:15;101411.22;;;7.21;68.01
7532;BME280;3807;49.030;8.714;2023-02-12T08:11:42;101414.62;;;7.21;67.91
7532;BME280;3807;49.030;8.714;2023-02-12T08:14:10;101416.34;;;7.24;67.92
7532;BME280;3807;49.030;8.714;2023-02-12T08:16:37;101413.03;;;7.28;67.78
7532;BME280;3807;49.030;8.714;2023-02-12T08:19:03;101420.66;;;7.29;67.73
7532;BME280;3807;49.030;8.714;2023-02-12T08:21:29;101408.00;;;7.31;67.68
7532;BME280;3807;49.030;8.714;2023-02-12T08:23:55;101413.06;;;7.31;67.79
7532;BME280;3807;49.030;8.714;2023-02-12T08:26:29;101408.94;;;7.36;67.59
7532;BME280;3807;49.030;8.714;2023-02-12T08:28:57;101413.16;;;7.37;67.49
7532;BME280;3807;49.030;8.714;2023-02-12T08:31:25;101404.72;;;7.38;67.60
7532;BME280;3807;49.030;8.714;2023-02-12T08:33:52;101410.47;;;7.28;67.78
7532;BME280;3807;49.030;8.714;2023-02-12T08:36:21;101410.44;;;7.23;68.00
7532;BME280;3807;49.030;8.714;2023-02-12T08:38:48;101411.38;;;7.30;67.92
7532;BME280;3807;49.030;8.714;2023-02-12T08:41:16;101412.31;;;7.36;69.07
7532;BME280;3807;49.030;8.714;2023-02-12T08:43:42;101408.00;;;7.29;70.40
7532;BME280;3807;49.030;8.714;2023-02-12T08:46:10;101422.31;;;7.26;69.22
7532;BME280;3807;49.030;8.714;2023-02-12T08:48:36;101423.16;;;7.28;69.57
7532;BME280;3807;49.030;8.714;2023-02-12T08:51:04;101428.47;;;7.45;68.83
7532;BME280;3807;49.030;8.714;2023-02-12T08:53:29;101420.84;;;7.45;69.15
7532;BME280;3807;49.030;8.714;2023-02-12T08:55:55;101420.91;;;7.46;69.46
7532;BME280;3807;49.030;8.714;2023-02-12T08:58:20;101422.44;;;7.38;70.17
7532;BME280;3807;49.030;8.714;2023-02-12T09:00:45;101425.97;;;7.46;70.03
7532;BME280;3807;49.030;8.714;2023-02-12T09:03:11;101427.63;;;7.46;70.31
7532;BME280;3807;49.030;8.714;2023-02-12T09:05:40;101429.44;;;7.56;69.71
7532;BME280;3807;49.030;8.714;2023-02-12T09:08:06;101428.69;;;7.63;69.69
7532;BME280;3807;49.030;8.714;2023-02-12T09:10:32;101429.66;;;7.71;69.53
7532;BME280;3807;49.030;8.714;2023-02-12T09:12:57;101426.22;;;7.68;69.80
7532;BME280;3807;49.030;8.714;2023-02-12T09:15:23;101430.41;;;7.66;69.95
7532;BME280;3807;49.030;8.714;2023-02-12T09:17:48;101426.28;;;7.71;70.52
7532;BME280;3807;49.030;8.714;2023-02-12T09:20:14;101432.25;;;7.77;70.27
7532;BME280;3807;49.030;8.714;2023-02-12T09:22:40;101433.91;;;7.74;71.18
7532;BME280;3807;49.030;8.714;2023-02-12T09:25:05;101437.31;;;7.77;71.36
7532;BME280;3807;49.030;8.714;2023-02-12T09:27:31;101442.47;;;7.82;70.07
7532;BME280;3807;49.030;8.714;2023-02-12T09:29:56;101442.47;;;7.82;70.46
7532;BME280;3807;49.030;8.714;2023-02-12T09:32:21;101437.59;;;7.99;70.34
7532;BME280;3807;49.030;8.714;2023-02-12T09:34:47;101437.53;;;7.94;70.10
7532;BME280;3807;49.030;8.714;2023-02-12T09:37:12;101434.13;;;7.92;70.01
7532;BME280;3807;49.030;8.714;2023-02-12T09:39:37;101434.13;;;7.94;69.90
7532;BME280;3807;49.030;8.714;2023-02-12T09:50:52;101447.81;;;8.06;71.23
7532;BME280;3807;49.030;8.714;2023-02-12T09:53:21;101441.94;;;8.09;69.79
7532;BME280;3807;49.030;8.714;2023-02-12T09:55:48;101444.53;;;8.15;71.07
7532;BME280;3807;49.030;8.714;2023-02-12T09:58:19;101441.97;;;8.14;70.35
7532;BME280;3807;49.030;8.714;2023-02-12T10:00:46;101431.72;;;8.04;71.45
7532;BME280;3807;49.030;8.714;2023-02-12T10:03:14;101433.44;;;8.08;70.61
7532;BME280;3807;49.030;8.714;2023-02-12T10:06:02;101443.75;;;8.22;69.96
7532;BME280;3807;49.030;8.714;2023-02-12T10:08:38;101433.59;;;8.22;70.66
7532;BME280;3807;49.030;8.714;2023-02-12T10:11:21;101434.50;;;8.29;70.26
7532;BME280;3807;49.030;8.714;2023-02-12T10:16:47;101431.13;;;8.28;69.77
7532;BME280;3807;49.030;8.714;2023-02-12T10:23:08;101425.97;;;8.22;70.88
7532;BME280;3807;49.030;8.714;2023-02-12T10:26:07;101430.41;;;8.39;70.59
7532;BME280;3807;49.030;8.714;2023-02-12T10:28:38;101435.41;;;8.34;69.94
7532;BME280;3807;49.030;8.714;2023-02-12T10:31:15;101433.00;;;8.45;70.86
7532;BME280;3807;49.030;8.714;2023-02-12T10:33:45;101434.66;;;8.40;70.13
7532;BME280;3807;49.030;8.714;2023-02-12T10:36:41;101445.72;;;8.45;70.50
7532;BME280;3807;49.030;8.714;2023-02-12T10:41:42;101430.44;;;8.43;69.93
7532;BME280;3807;49.030;8.714;2023-02-12T10:44:10;101431.41;;;8.54;69.74
7532;BME280;3807;49.030;8.714;2023-02-12T10:46:36;101425.44;;;8.49;70.14
7532;BME280;3807;49.030;8.714;2023-02-12T10:49:02;101430.53;;;8.51;69.99
7532;BME280;3807;49.030;8.714;2023-02-12T10:54:38;101420.37;;;8.54;70.06
7532;BME280;3807;49.030;8.714;2023-02-12T10:57:14;101415.41;;;8.66;70.08
7532;BME280;3807;49.030;8.714;2023-02-12T10:59:43;101408.66;;;8.67;70.05
7532;BME280;3807;49.030;8.714;2023-02-12T11:04:46;101407.75;;;8.60;70.00
7532;BME280;3807;49.030;8.714;2023-02-12T11:07:12;101396.84;;;8.73;70.25
7532;BME280;3807;49.030;8.714;2023-02-12T11:09:40;101401.81;;;8.61;70.40
7532;BME280;3807;49.030;8.714;2023-02-12T11:14:54;101395.19;;;8.78;70.44
7532;BME280;3807;49.030;8.714;2023-02-12T11:17:42;101393.59;;;8.94;70.38
7532;BME280;3807;49.030;8.714;2023-02-12T11:23:01;101402.09;;;8.96;70.57
7532;BME280;3807;49.030;8.714;2023-02-12T11:25:33;101398.59;;;8.79;70.86
7532;BME280;3807;49.030;8.714;2023-02-12T11:28:02;101385.97;;;8.91;70.18
7532;BME280;3807;49.030;8.714;2023-02-12T11:30:28;101386.00;;;8.99;70.15
7532;BME280;3807;49.030;8.714;2023-02-12T11:32:54;101390.22;;;8.95;70.42
7532;BME280;3807;49.030;8.714;2023-02-12T11:35:23;101390.38;;;9.20;69.98
7532;BME280;3807;49.030;8.714;2023-02-12T11:37:54;101387.00;;;9.24;69.73
7532;BME280;3807;49.030;8.714;2023-02-12T11:40:29;101385.25;;;9.17;70.02
7532;BME280;3807;49.030;8.714;2023-02-12T11:43:03;101374.28;;;9.27;69.84
7532;BME280;3807;49.030;8.714;2023-02-12T11:45:52;101379.37;;;9.25;69.54
7532;BME280;3807;49.030;8.714;2023-02-12T11:48:36;101371.69;;;9.16;70.58
7532;BME280;3807;49.030;8.714;2023-02-12T11:51:05;101375.22;;;9.41;69.61
7532;BME280;3807;49.030;8.714;2023-02-12T11:53:36;101371.84;;;9.42;69.44
7532;BME280;3807;49.030;8.714;2023-02-12T11:56:14;101371.75;;;9.27;69.95
7532;BME280;3807;49.030;8.714;2023-02-12T11:58:40;101370.94;;;9.31;70.18
7532;BME280;3807;49.030;8.714;2023-02-12T12:01:17;101362.53;;;9.49;69.30
7532;BME280;3807;49.030;8.714;2023-02-12T12:04:18;101377.03;;;9.70;68.58
7532;BME280;3807;49.030;8.714;2023-02-12T12:06:50;101372.78;;;9.72;68.47
7532;BME280;3807;49.030;8.714;2023-02-12T12:09:26;101366.91;;;9.87;68.03
7532;BME280;3807;49.030;8.714;2023-02-12T12:12:03;101366.88;;;9.81;68.24
7532;BME280;3807;49.030;8.714;2023-02-12T12:14:49;101371.97;;;9.85;68.36
7532;BME280;3807;49.030;8.714;2023-02-12T12:17:52;101370.31;;;9.87;68.44
7532;BME280;3807;49.030;8.714;2023-02-12T12:20:42;101361.75;;;9.76;68.93
7532;BME280;3807;49.030;8.714;2023-02-12T12:25:56;101354.97;;;9.72;68.90
7532;BME280;3807;49.030;8.714;2023-02-12T12:29:03;101355.03;;;9.90;68.61
7532;BME280;3807;49.030;8.714;2023-02-12T12:31:37;101352.50;;;9.90;68.68
7532;BME280;3807;49.030;8.714;2023-02-12T12:34:09;101346.56;;;10.02;68.12
7532;BME280;3807;49.030;8.714;2023-02-12T12:37:25;101355.87;;;10.00;68.60
7532;BME280;3807;49.030;8.714;2023-02-12T12:40:24;101343.16;;;10.14;68.18
7532;BME280;3807;49.030;8.714;2023-02-12T13:07:18;101313.50;;;10.51;67.69
7532;BME280;3807;49.030;8.714;2023-02-12T13:10:16;101306.69;;;10.55;68.17
7532;BME280;3807;49.030;8.714;2023-02-12T13:12:50;101307.56;;;10.46;68.20
7532;BME280;3807;49.030;8.714;2023-02-12T13:15:36;101308.37;;;10.59;67.63
7532;BME280;3807;49.030;8.714;2023-02-12T13:24:00;101293.06;;;10.63;67.80
7532;BME280;3807;49.030;8.714;2023-02-12T13:29:28;101286.31;;;10.64;67.98
7532;BME280;3807;49.030;8.714;2023-02-12T13:31:56;101287.13;;;10.72;67.85
7532;BME280;3807;49.030;8.714;2023-02-12T13:34:25;101284.56;;;10.81;67.85
7532;BME280;3807;49.030;8.714;2023-02-12T13:36:53;101291.34;;;10.82;67.57
7532;BME280;3807;49.030;8.714;2023-02-12T13:39:35;101283.69;;;10.81;67.85
7532;BME280;3807;49.030;8.714;2023-02-12T13:44:49;101281.16;;;10.82;67.82
7532;BME280;3807;49.030;8.714;2023-02-12T13:48:13;101275.22;;;10.88;67.65
7532;BME280;3807;49.030;8.714;2023-02-12T13:50:33;101284.50;;;10.93;67.38
7532;BME280;3807;49.030;8.714;2023-02-12T13:53:43;101280.31;;;10.85;67.72
7532;BME280;3807;49.030;8.714;2023-02-12T13:56:27;101277.72;;;10.92;67.50
7532;BME280;3807;49.030;8.714;2023-02-12T13:58:54;101273.53;;;10.76;68.44
7532;BME280;3807;49.030;8.714;2023-02-12T14:01:46;101277.72;;;10.95;67.53
7532;BME280;3807;49.030;8.714;2023-02-12T14:04:25;101268.38;;;10.87;67.96
7532;BME280;3807;49.030;8.714;2023-02-12T14:09:37;101259.84;;;11.03;67.38
7532;BME280;3807;49.030;8.714;2023-02-12T14:12:08;101259.00;;;11.03;67.40
7532;BME280;3807;49.030;8.714;2023-02-12T14:14:37;101261.53;;;11.06;67.49
7532;BME280;3807;49.030;8.714;2023-02-12T14:20:26;101262.31;;;11.20;67.43
7532;BME280;3807;49.030;8.714;2023-02-12T14:22:59;101258.91;;;11.21;67.08
7532;BME280;3807;49.030;8.714;2023-02-12T14:25:39;101261.41;;;11.26;66.98
7532;BME280;3807;49.030;8.714;2023-02-12T14:31:30;101261.38;;;11.35;66.59
7532;BME280;3807;49.030;8.714;2023-02-12T14:39:00;101263.06;;;11.36;66.51
7532;BME280;3807;49.030;8.714;2023-02-12T14:41:31;101260.59;;;11.24;66.46
7532;BME280;3807;49.030;8.714;2023-02-12T14:46:54;101264.00;;;11.23;67.33
7532;BME280;3807;49.030;8.714;2023-02-12T14:49:39;101258.81;;;11.36;66.89
7532;BME280;3807;49.030;8.714;2023-02-12T14:54:48;101251.16;;;11.39;66.72
7532;BME280;3807;49.030;8.714;2023-02-12T14:57:42;101258.81;;;11.41;66.58
7532;BME280;3807;49.030;8.714;2023-02-12T15:02:51;101248.62;;;11.35;67.22
7532;BME280;3807;49.030;8.714;2023-02-12T15:05:22;101250.37;;;11.28;67.29
7532;BME280;3807;49.030;8.714;2023-02-12T15:07:52;101252.94;;;11.30;66.92
7532;BME280;3807;49.030;8.714;2023-02-12T15:10:28;101247.81;;;11.31;66.82
7532;BME280;3807;49.030;8.714;2023-02-12T15:13:04;101247.81;;;11.30;67.29
7532;BME280;3807;49.030;8.714;2023-02-12T15:15:53;101246.91;;;11.38;66.42
7532;BME280;3807;49.030;8.714;2023-02-12T15:18:25;101237.66;;;11.24;66.79
7532;BME280;3807;49.030;8.714;2023-02-12T15:21:13;101241.00;;;11.29;66.77
7532;BME280;3807;49.030;8.714;2023-02-12T15:23:43;101235.88;;;11.35;66.57
7532;BME280;3807;49.030;8.714;2023-02-12T15:26:17;101231.66;;;11.31;66.54
7532;BME280;3807;49.030;8.714;2023-02-12T15:28:49;101216.25;;;11.43;66.58
7532;BME280;3807;49.030;8.714;2023-02-12T15:31:18;101218.00;;;11.41;66.66
7532;BME280;3807;49.030;8.714;2023-02-12T15:33:47;101226.47;;;11.43;66.42
7532;BME280;3807;49.030;8.714;2023-02-12T15:36:16;101218.75;;;11.52;66.64
7532;BME280;3807;49.030;8.714;2023-02-12T15:38:42;101223.84;;;11.55;65.98
7532;BME280;3807;49.030;8.714;2023-02-12T15:41:26;101222.16;;;11.53;66.77
7532;BME280;3807;49.030;8.714;2023-02-12T15:43:52;101227.34;;;11.40;66.24